Weather at Ishurdi Airport

Public forecast

Using degrees Celsius for public forecast. Weather courtesy of forecast.io.

Closest aviation weather report (METAR) to Ishurdi Airport

Closest report is Hazrat Shahjalal International Airport, 76.3 nm (141.2 km) ESE. Retrieved 2020/09/21 17:30 UTC (12 minutes ago):

VGHS 211730Z 12008KT 3500 HZ SCT010 FEW025CB BKN100 28/24 Q1002 TEMPO TSRA

Closest aviation forecast (TAF) to Ishurdi Airport

Closest forecast is Hazrat Shahjalal International Airport, 76.3 nm (141.2 km) ESE. Retrieved 2020/09/21 12:00 UTC (6 hours ago):

TAF VGHS 211100Z 2112/2218 16007KT 3500 HZ SCT012 BKN100 TEMPO 2112/2124 14020KT 2000 RA/TSRA BKN008 FEW025CB OVC090 BECMG 2203/2205 18008KT 4000 HZ SCT015 BKN100 TEMPO 2203/2212 14020KT 2000 RA/TSRA BKN008 FEW025CB OVC090